Latest  Newer  Older  Last 2 hours animation  Current image  Latest image 
Rain/snow radar  Infrared sat images 
Real-time lightning map

All time is UTC (add 2 hours to UTC in wintertime, 3 hours to UTC in DST for Latvia local time)

2019/05/26 03:20 EVRA 260320Z 22007KT 9999 FEW012 SCT043 11/09 Q1006 NOSIG
2019/05/26 03:20 EVLA 260320Z AUTO 21009KT 9999 SCT008/// OVC039/// 11/10 Q1006
2019/05/26 03:20 EVVA 260320Z AUTO 20009KT 9999 FEW008 11/10 Q1004
2019/05/26 03:20 EYKA 260320Z 22003KT CAVOK 09/07 Q1010
2019/05/26 03:20 EYPA 260320Z AUTO 22006KT 200V280 9999 BKN007/// 11/10 Q1008
2019/05/26 03:28 EYSA 260328Z 22010KT 9999 BKN011 BKN067 10/08 Q1008 GRN NOSIG
2019/05/26 03:20 EYVI 260320Z 27007KT 9999 BKN015 OVC037 10/07 Q1010 NOSIG
2019/05/25 07:50 EEKA 250750Z 24009KT 190V300 9999 BKN021 12/07 Q1002
2019/05/26 03:00 EEKE 260300Z AUTO 20010KT 9999NDV OVC005 10/09 Q1004
2019/05/25 12:50 EEPU 251250Z 24016KT 200V260 9999 BKN026 14/08 Q1004


   RIGA AIRPORT     EVRA               56 55N  023 58E   10   X     T          6 LV
   LIEPAJA INTL     EVLA        26406  56 31N  021 06E    4   X                8 LV
   VENTPILS         EVVA               57 21N  021 33E    6   X                8 LV
   KAUNAS           EYKA               54 54N  023 55E   77   X     T          6 LT
   PALANGA INTL     EYPA               55 55N  021 03E   10   X                6 LT
   SIAULIAI INTL    EYSA               55 54N  023 24E  135   X     T          6 LT
   VILNIUS INTL     EYVI        26730  54 38N  025 17E  197   X     T          6 LT
   KARDLA           EEKA        26116  58 59N  022 50E    4   X                8 EE
   KURESSAARE       EEKE               58 14N  022 31E    4   X                8 EE
   PARNU            EEPU               58 25N  024 28E   14   X                8 EE
   TALLINN          EETN        26038  59 24N  024 49E   40   X     T          8 EE
   TARTU            EETU               58 19N  026 41E   67   X                8 EE

cloud coverage image from sat24.com and METAR data from weather.noaa.gov